Time;durP1;ratioP1;P1;durP2;ratioP2;P2;SDS_P1;SDS_P2;PMS_P1;PMS_P2;Temp;Humidity;BMP_temperature;BMP_pressure;BME280_temperature;BME280_humidity;BME280_pressure;Samples;Min_cycle;Max_cycle;Signal;HPM_P1;HPM_P2
2022/11/02 00:01:56;;;;;;;2.50;0.80;;;;;;;;;;5022650;28;93559;-52
2022/11/02 00:04:24;;;;;;;1.23;0.77;;;;;;;;;;5040262;28;92115;-53
2022/11/02 00:06:52;;;;;;;2.40;0.60;;;;;;;;;;5039326;28;94193;-53
2022/11/02 00:09:21;;;;;;;0.60;0.60;;;;;;;;;;5038157;28;94119;-52
2022/11/02 00:11:49;;;;;;;1.27;0.70;;;;;;;;;;5021809;28;92074;-52
2022/11/02 00:14:17;;;;;;;0.93;0.57;;;;;;;;;;5029417;28;92064;-52
2022/11/02 00:16:46;;;;;;;0.50;0.50;;;;;;;;;;5039737;28;93132;-52
2022/11/02 00:19:15;;;;;;;1.10;0.70;;;;;;;;;;5038313;28;92523;-52
2022/11/02 00:21:44;;;;;;;1.17;0.77;;;;;;;;;;5037578;28;92058;-52
2022/11/02 00:24:12;;;;;;;0.57;0.53;;;;;;;;;;5031759;28;92033;-52
2022/11/02 00:26:40;;;;;;;2.33;1.03;;;;;;;;;;5038827;28;93908;-52
2022/11/02 00:29:09;;;;;;;0.63;0.50;;;;;;;;;;5037859;28;95031;-52
2022/11/02 00:31:37;;;;;;;0.50;0.50;;;;;;;;;;5039504;28;92121;-52
2022/11/02 00:34:05;;;;;;;0.50;0.50;;;;;;;;;;5038642;28;92032;-52
2022/11/02 00:36:35;;;;;;;1.27;0.53;;;;;;;;;;5039618;28;92825;-52
2022/11/02 00:39:03;;;;;;;3.50;0.67;;;;;;;;;;5026729;28;94024;-52
2022/11/02 00:41:32;;;;;;;4.20;0.57;;;;;;;;;;5028385;28;92088;-52
2022/11/02 00:44:00;;;;;;;0.80;0.50;;;;;;;;;;5033333;28;91407;-52
2022/11/02 00:46:30;;;;;;;0.53;0.53;;;;;;;;;;5037344;28;94263;-52
2022/11/02 00:48:58;;;;;;;0.70;0.70;;;;;;;;;;5035210;28;93846;-53
2022/11/02 00:51:26;;;;;;;1.90;0.60;;;;;;;;;;5039245;28;93060;-52
2022/11/02 00:53:56;;;;;;;1.37;0.60;;;;;;;;;;5021572;28;92159;-53
2022/11/02 00:56:24;;;;;;;1.77;0.50;;;;;;;;;;5019116;28;94254;-53
2022/11/02 00:58:53;;;;;;;0.87;0.80;;;;;;;;;;5032724;28;92707;-52
2022/11/02 01:01:21;;;;;;;0.50;0.50;;;;;;;;;;5038895;27;92033;-52
2022/11/02 01:03:49;;;;;;;1.30;0.87;;;;;;;;;;5031815;28;92424;-52
2022/11/02 01:06:18;;;;;;;0.70;0.70;;;;;;;;;;5028135;28;94356;-52
2022/11/02 01:08:46;;;;;;;2.00;0.73;;;;;;;;;;5021274;28;93844;-52
2022/11/02 01:11:17;;;;;;;0.40;0.40;;;;;;;;;;5032474;28;92348;-52
2022/11/02 01:13:45;;;;;;;0.63;0.40;;;;;;;;;;5021820;28;92216;-53
2022/11/02 01:16:14;;;;;;;0.50;0.43;;;;;;;;;;5029278;28;95086;-52
2022/11/02 01:18:42;;;;;;;1.90;0.63;;;;;;;;;;5019750;28;94862;-53
2022/11/02 01:21:11;;;;;;;4.53;0.80;;;;;;;;;;5020168;28;92120;-53
2022/11/02 01:23:39;;;;;;;1.50;0.83;;;;;;;;;;5034507;28;92084;-52
2022/11/02 01:26:08;;;;;;;1.03;0.60;;;;;;;;;;5038382;28;94340;-52
2022/11/02 01:28:38;;;;;;;0.60;0.60;;;;;;;;;;5032072;28;92524;-52
2022/11/02 01:31:06;;;;;;;1.47;0.70;;;;;;;;;;5024221;28;92103;-53
2022/11/02 01:33:34;;;;;;;0.77;0.57;;;;;;;;;;5030766;28;91455;-53
2022/11/02 01:36:03;;;;;;;1.10;0.50;;;;;;;;;;5027661;28;94185;-52
2022/11/02 01:38:31;;;;;;;3.13;1.00;;;;;;;;;;5018802;28;94014;-52
2022/11/02 01:41:00;;;;;;;1.53;1.23;;;;;;;;;;5019826;28;93182;-52
2022/11/02 01:43:28;;;;;;;1.50;0.83;;;;;;;;;;5032317;28;92119;-53
2022/11/02 01:45:59;;;;;;;1.57;0.93;;;;;;;;;;5034110;28;94244;-53
2022/11/02 01:48:28;;;;;;;3.00;1.47;;;;;;;;;;5017807;28;93796;-52
2022/11/02 01:50:56;;;;;;;2.00;1.07;;;;;;;;;;5031310;28;92067;-52
2022/11/02 01:53:25;;;;;;;1.70;1.30;;;;;;;;;;5030622;28;92016;-53
2022/11/02 01:55:53;;;;;;;1.80;1.00;;;;;;;;;;5038864;28;93073;-52
2022/11/02 01:58:21;;;;;;;3.13;1.10;;;;;;;;;;5037426;28;92536;-53
2022/11/02 02:00:49;;;;;;;5.00;1.43;;;;;;;;;;5019352;28;92120;-53
2022/11/02 02:03:20;;;;;;;0.70;0.70;;;;;;;;;;5028706;28;92145;-52
2022/11/02 02:05:49;;;;;;;1.03;1.03;;;;;;;;;;5028904;28;95064;-52
2022/11/02 02:08:18;;;;;;;3.90;1.43;;;;;;;;;;5018151;28;94941;-52
2022/11/02 02:10:46;;;;;;;1.67;1.20;;;;;;;;;;5018484;28;92621;-52
2022/11/02 02:13:14;;;;;;;1.77;1.03;;;;;;;;;;5029190;28;92168;-53
2022/11/02 02:15:44;;;;;;;1.30;0.80;;;;;;;;;;5037963;28;92939;-52
2022/11/02 02:18:13;;;;;;;3.73;0.73;;;;;;;;;;5030338;28;93776;-52
2022/11/02 02:20:51;;;;;;;1.83;0.90;;;;;;;;;;5037668;28;92077;-54
2022/11/02 02:23:46;;;;;;;1.80;0.93;;;;;;;;;;5035862;28;91317;-52
2022/11/02 02:26:25;;;;;;;1.27;0.70;;;;;;;;;;4990801;28;93063;-52
2022/11/02 02:28:55;;;;;;;2.10;1.30;;;;;;;;;;5036242;28;92910;-53
2022/11/02 02:31:24;;;;;;;0.87;0.70;;;;;;;;;;5037726;28;92891;-52
2022/11/02 02:33:54;;;;;;;1.50;1.20;;;;;;;;;;5035381;28;92236;-53
2022/11/02 02:36:23;;;;;;;1.43;0.83;;;;;;;;;;5037726;28;94164;-53
2022/11/02 02:38:56;;;;;;;2.10;1.10;;;;;;;;;;5037963;28;93954;-52
2022/11/02 02:41:25;;;;;;;1.80;1.10;;;;;;;;;;5038070;28;92065;-52
2022/11/02 02:43:53;;;;;;;3.03;0.90;;;;;;;;;;5032250;28;92301;-52
2022/11/02 02:46:24;;;;;;;1.53;0.70;;;;;;;;;;5037193;28;94121;-53
2022/11/02 02:48:53;;;;;;;1.63;0.90;;;;;;;;;;5027180;28;93996;-53
2022/11/02 02:51:22;;;;;;;1.73;1.23;;;;;;;;;;5021318;28;92108;-53
2022/11/02 02:53:51;;;;;;;1.63;1.00;;;;;;;;;;5023320;28;92081;-52
2022/11/02 02:56:20;;;;;;;1.07;0.70;;;;;;;;;;5017267;28;94857;-52
2022/11/02 02:58:49;;;;;;;1.07;0.93;;;;;;;;;;5018580;28;94023;-52
2022/11/02 03:01:17;;;;;;;1.00;0.67;;;;;;;;;;5025614;28;92514;-52
2022/11/02 03:03:47;;;;;;;1.70;0.60;;;;;;;;;;5033810;28;92144;-53
2022/11/02 03:06:17;;;;;;;0.40;0.40;;;;;;;;;;5017746;28;93950;-53
2022/11/02 03:08:47;;;;;;;4.23;1.23;;;;;;;;;;5033533;28;93894;-52
2022/11/02 03:11:16;;;;;;;1.73;1.03;;;;;;;;;;5017879;28;92229;-52
2022/11/02 03:13:48;;;;;;;2.27;0.90;;;;;;;;;;5030022;28;91410;-52
2022/11/02 03:16:18;;;;;;;1.27;0.90;;;;;;;;;;5035122;28;93198;-53
2022/11/02 03:18:49;;;;;;;2.30;1.13;;;;;;;;;;5023845;28;93522;-52
2022/11/02 03:21:20;;;;;;;0.90;0.67;;;;;;;;;;5018139;28;92960;-52
2022/11/02 03:23:50;;;;;;;0.77;0.57;;;;;;;;;;5031988;28;93847;-52
2022/11/02 03:26:19;;;;;;;0.90;0.80;;;;;;;;;;5040707;28;93079;-53
2022/11/02 03:28:51;;;;;;;2.73;1.23;;;;;;;;;;5040745;28;94026;-53
2022/11/02 03:31:20;;;;;;;4.33;1.53;;;;;;;;;;5029663;28;92107;-52
2022/11/02 03:33:51;;;;;;;1.07;0.80;;;;;;;;;;5032865;28;92089;-53
2022/11/02 03:36:20;;;;;;;3.33;0.97;;;;;;;;;;5033739;28;94134;-52
2022/11/02 03:38:49;;;;;;;3.47;1.03;;;;;;;;;;5040821;28;94012;-52
2022/11/02 03:41:18;;;;;;;4.33;1.33;;;;;;;;;;5033781;28;92125;-52
2022/11/02 03:43:46;;;;;;;3.07;1.00;;;;;;;;;;5037410;28;92117;-52
2022/11/02 03:46:14;;;;;;;3.43;0.93;;;;;;;;;;5033196;28;95244;-53
2022/11/02 03:48:43;;;;;;;0.83;0.73;;;;;;;;;;5019214;28;94637;-53
2022/11/02 03:51:14;;;;;;;1.33;0.80;;;;;;;;;;5021396;28;92285;-53
2022/11/02 03:53:42;;;;;;;2.37;0.80;;;;;;;;;;5031375;28;92044;-52
2022/11/02 03:56:13;;;;;;;1.27;0.80;;;;;;;;;;5028343;28;93788;-52
2022/11/02 03:58:42;;;;;;;0.83;0.83;;;;;;;;;;5023823;28;92659;-52
2022/11/02 04:01:10;;;;;;;1.50;0.73;;;;;;;;;;5040426;28;92098;-52
2022/11/02 04:03:39;;;;;;;1.10;1.00;;;;;;;;;;5038800;28;91377;-52
2022/11/02 04:06:07;;;;;;;0.77;0.73;;;;;;;;;;5037958;28;94119;-53
2022/11/02 04:08:38;;;;;;;3.03;0.90;;;;;;;;;;5021252;28;93871;-53
2022/11/02 04:16:43;;;;;;;1.03;0.70;;;;;;;;;;5026867;28;94100;-52
2022/11/02 04:19:26;;;;;;;2.47;1.10;;;;;;;;;;5020217;28;94073;-52
2022/11/02 04:27:27;;;;;;;2.70;1.27;;;;;;;;;;5037218;28;93161;-53
2022/11/02 04:29:55;;;;;;;4.03;0.70;;;;;;;;;;5039736;28;92920;-52
2022/11/02 04:35:10;;;;;;;1.00;0.77;;;;;;;;;;5019116;28;92190;-53
2022/11/02 04:40:26;;;;;;;1.40;0.80;;;;;;;;;;5038701;28;94621;-53
2022/11/02 04:42:54;;;;;;;1.37;0.60;;;;;;;;;;5024504;28;92117;-52
2022/11/02 04:45:22;;;;;;;2.20;0.87;;;;;;;;;;5038723;28;92057;-52
2022/11/02 04:47:50;;;;;;;2.00;0.80;;;;;;;;;;5039117;28;94360;-53
2022/11/02 04:50:19;;;;;;;1.03;0.73;;;;;;;;;;5037348;28;93964;-52
2022/11/02 04:52:47;;;;;;;1.50;0.70;;;;;;;;;;5030476;28;92162;-52
2022/11/02 04:55:15;;;;;;;2.30;1.10;;;;;;;;;;5038208;28;91982;-52
2022/11/02 04:57:46;;;;;;;1.20;0.67;;;;;;;;;;5038794;28;94233;-53
2022/11/02 05:00:15;;;;;;;2.60;0.90;;;;;;;;;;5037482;28;94077;-52
2022/11/02 05:02:43;;;;;;;1.73;0.77;;;;;;;;;;5039281;28;93028;-53
2022/11/02 05:05:12;;;;;;;1.57;0.80;;;;;;;;;;5038785;28;92038;-53
2022/11/02 05:07:40;;;;;;;1.53;0.83;;;;;;;;;;5035270;28;93889;-53
2022/11/02 05:10:08;;;;;;;2.33;0.97;;;;;;;;;;5034511;28;93789;-52
2022/11/02 05:12:37;;;;;;;1.60;0.73;;;;;;;;;;5018704;28;92101;-53
2022/11/02 05:15:07;;;;;;;0.50;0.50;;;;;;;;;;5035159;28;92392;-53
2022/11/02 05:17:35;;;;;;;4.13;0.60;;;;;;;;;;5038302;28;93052;-53
2022/11/02 05:20:03;;;;;;;2.13;0.70;;;;;;;;;;5034350;28;92839;-53
2022/11/02 05:22:32;;;;;;;1.10;0.43;;;;;;;;;;5031816;28;92897;-52
2022/11/02 05:25:00;;;;;;;6.80;1.13;;;;;;;;;;5023657;28;92094;-53
2022/11/02 05:27:28;;;;;;;2.40;0.50;;;;;;;;;;5034361;28;93854;-52
2022/11/02 05:29:56;;;;;;;2.33;0.90;;;;;;;;;;5038351;28;93779;-52
2022/11/02 05:32:26;;;;;;;2.97;0.73;;;;;;;;;;5037262;28;92920;-52
2022/11/02 05:34:54;;;;;;;0.47;0.47;;;;;;;;;;5024324;28;92116;-52
2022/11/02 05:37:23;;;;;;;2.23;0.67;;;;;;;;;;5020401;28;93973;-52
2022/11/02 05:39:51;;;;;;;2.77;0.30;;;;;;;;;;5035427;28;94079;-53
2022/11/02 05:42:19;;;;;;;1.07;0.50;;;;;;;;;;5037205;28;92146;-53
2022/11/02 05:44:47;;;;;;;1.17;1.07;;;;;;;;;;5039242;28;91462;-52
2022/11/02 05:47:16;;;;;;;3.37;0.67;;;;;;;;;;5036894;28;94171;-53
2022/11/02 05:49:45;;;;;;;1.50;0.40;;;;;;;;;;5021086;28;93772;-53
2022/11/02 05:52:14;;;;;;;0.40;0.40;;;;;;;;;;5016751;28;93140;-52
2022/11/02 05:54:42;;;;;;;0.50;0.50;;;;;;;;;;5038881;28;92040;-52
2022/11/02 05:57:10;;;;;;;1.30;0.50;;;;;;;;;;5038290;28;94419;-54
2022/11/02 05:59:39;;;;;;;0.80;0.43;;;;;;;;;;5038449;28;93915;-53
2022/11/02 06:02:11;;;;;;;1.27;0.60;;;;;;;;;;5025408;28;92156;-53
2022/11/02 06:04:39;;;;;;;2.63;0.73;;;;;;;;;;5019447;28;92158;-53
2022/11/02 06:07:09;;;;;;;2.17;0.40;;;;;;;;;;5019368;28;94191;-53
2022/11/02 06:09:37;;;;;;;0.93;0.47;;;;;;;;;;5028433;28;94224;-52
2022/11/02 06:12:06;;;;;;;3.60;0.60;;;;;;;;;;5024658;28;92254;-53
2022/11/02 06:14:34;;;;;;;0.77;0.63;;;;;;;;;;5028205;28;91992;-54
2022/11/02 06:17:02;;;;;;;0.77;0.57;;;;;;;;;;5036958;28;95143;-53
2022/11/02 06:19:31;;;;;;;1.23;0.87;;;;;;;;;;5036614;28;94923;-53
2022/11/02 06:21:59;;;;;;;0.97;0.40;;;;;;;;;;5038611;28;92054;-53
2022/11/02 06:24:28;;;;;;;0.73;0.50;;;;;;;;;;5035499;28;92073;-53
2022/11/02 06:26:57;;;;;;;2.27;0.70;;;;;;;;;;5037069;28;93863;-53
2022/11/02 06:29:25;;;;;;;2.27;0.47;;;;;;;;;;5029993;28;93952;-53
2022/11/02 06:31:53;;;;;;;0.93;0.30;;;;;;;;;;5019334;28;92139;-53
2022/11/02 06:34:22;;;;;;;0.50;0.50;;;;;;;;;;5019434;28;91310;-53
2022/11/02 06:36:50;;;;;;;0.50;0.50;;;;;;;;;;5017964;28;93197;-53
2022/11/02 06:39:18;;;;;;;0.97;0.63;;;;;;;;;;5022932;28;93795;-53
2022/11/02 06:41:48;;;;;;;2.93;0.60;;;;;;;;;;5031865;28;93039;-52
2022/11/02 06:44:16;;;;;;;0.47;0.43;;;;;;;;;;5037753;28;92192;-53
2022/11/02 06:46:44;;;;;;;3.43;0.70;;;;;;;;;;5018968;28;93303;-52
2022/11/02 06:49:13;;;;;;;3.00;0.67;;;;;;;;;;5028407;28;92433;-54
2022/11/02 06:51:41;;;;;;;1.17;0.70;;;;;;;;;;5037880;28;92133;-53
2022/11/02 06:54:09;;;;;;;1.57;0.50;;;;;;;;;;5023751;28;92018;-53
2022/11/02 06:56:38;;;;;;;0.70;0.50;;;;;;;;;;5020959;28;94195;-53
2022/11/02 06:59:07;;;;;;;0.93;0.57;;;;;;;;;;5034516;27;92792;-52
2022/11/02 07:01:36;;;;;;;2.63;0.60;;;;;;;;;;5023138;28;92145;-52
2022/11/02 07:04:04;;;;;;;1.30;0.60;;;;;;;;;;5021730;28;92114;-54
2022/11/02 07:06:33;;;;;;;1.23;0.70;;;;;;;;;;5022938;28;95215;-53
2022/11/02 07:09:01;;;;;;;0.60;0.40;;;;;;;;;;5037967;28;93848;-52
2022/11/02 07:11:30;;;;;;;1.10;0.43;;;;;;;;;;5037845;28;91995;-54
2022/11/02 07:13:58;;;;;;;0.73;0.47;;;;;;;;;;5028387;28;92130;-54
2022/11/02 07:16:27;;;;;;;2.53;0.43;;;;;;;;;;5032855;28;94364;-54
2022/11/02 07:18:56;;;;;;;3.00;1.43;;;;;;;;;;5035350;28;93992;-55
2022/11/02 07:21:24;;;;;;;7.03;2.43;;;;;;;;;;5035908;28;92180;-55
2022/11/02 07:23:53;;;;;;;1.87;1.77;;;;;;;;;;5022930;28;91291;-57
2022/11/02 07:26:21;;;;;;;2.50;1.90;;;;;;;;;;5032640;28;94503;-55
2022/11/02 07:28:50;;;;;;;3.97;2.63;;;;;;;;;;5036214;28;92552;-56
2022/11/02 07:31:25;;;;;;;2.30;2.00;;;;;;;;;;5020685;28;93066;-56
2022/11/02 07:33:55;;;;;;;2.60;1.60;;;;;;;;;;5024688;28;92185;-56
2022/11/02 07:36:23;;;;;;;1.70;1.57;;;;;;;;;;5039697;28;93113;-56
2022/11/02 07:38:51;;;;;;;5.50;2.03;;;;;;;;;;5040720;28;95298;-55
2022/11/02 07:41:20;;;;;;;2.27;1.50;;;;;;;;;;5040085;28;92184;-56
2022/11/02 07:43:48;;;;;;;1.23;1.13;;;;;;;;;;5025425;28;92119;-55
2022/11/02 07:46:17;;;;;;;1.33;1.10;;;;;;;;;;5030894;28;94173;-51
2022/11/02 07:48:47;;;;;;;1.20;1.10;;;;;;;;;;5040351;28;95316;-52
2022/11/02 07:51:16;;;;;;;1.10;0.90;;;;;;;;;;5038473;28;92097;-51
2022/11/02 07:53:45;;;;;;;4.00;1.03;;;;;;;;;;5029050;28;92318;-53
2022/11/02 07:56:13;;;;;;;1.37;1.03;;;;;;;;;;5032820;28;95228;-54
2022/11/02 07:58:42;;;;;;;1.47;1.20;;;;;;;;;;5040073;28;93965;-52
2022/11/02 08:01:10;;;;;;;1.33;1.23;;;;;;;;;;5040095;28;92062;-51
2022/11/02 08:03:38;;;;;;;0.67;0.57;;;;;;;;;;5028565;28;92305;-52
2022/11/02 08:06:07;;;;;;;1.60;0.60;;;;;;;;;;5027447;28;93175;-55
2022/11/02 08:08:36;;;;;;;1.23;1.23;;;;;;;;;;5038642;28;94334;-51
2022/11/02 08:11:06;;;;;;;0.77;0.60;;;;;;;;;;5039047;28;92535;-51
2022/11/02 08:13:34;;;;;;;0.80;0.80;;;;;;;;;;5030533;28;91228;-51
2022/11/02 08:16:02;;;;;;;0.93;0.57;;;;;;;;;;5035062;28;92858;-50
2022/11/02 08:18:31;;;;;;;0.90;0.90;;;;;;;;;;5037758;28;92757;-51
2022/11/02 08:21:00;;;;;;;2.23;0.70;;;;;;;;;;5039318;28;92918;-51
2022/11/02 08:23:28;;;;;;;2.33;0.70;;;;;;;;;;5038282;28;92150;-51
2022/11/02 08:25:58;;;;;;;0.47;0.47;;;;;;;;;;5039506;28;93128;-50
2022/11/02 08:28:27;;;;;;;0.77;0.77;;;;;;;;;;5040099;28;93810;-50
2022/11/02 08:30:55;;;;;;;0.43;0.43;;;;;;;;;;5040142;28;92242;-50
2022/11/02 08:33:24;;;;;;;1.57;0.40;;;;;;;;;;5036270;28;92766;-50
2022/11/02 08:35:52;;;;;;;0.63;0.53;;;;;;;;;;5025876;28;93018;-50
2022/11/02 08:38:21;;;;;;;0.47;0.47;;;;;;;;;;5019817;28;95266;-50
2022/11/02 08:40:50;;;;;;;1.03;0.70;;;;;;;;;;5020044;28;92087;-50
2022/11/02 08:43:19;;;;;;;2.63;0.93;;;;;;;;;;5021017;28;92086;-50
2022/11/02 08:45:48;;;;;;;0.40;0.40;;;;;;;;;;5036188;28;93862;-51
2022/11/02 08:48:37;;;;;;;0.70;0.70;;;;;;;;;;5027784;28;92140;-51
2022/11/02 08:51:07;;;;;;;1.73;0.70;;;;;;;;;;5036918;28;92153;-51
2022/11/02 08:53:36;;;;;;;1.37;0.43;;;;;;;;;;5039419;28;92092;-51
2022/11/02 08:56:04;;;;;;;3.07;0.70;;;;;;;;;;5039003;28;93302;-51
2022/11/02 08:58:34;;;;;;;4.80;0.50;;;;;;;;;;5039137;28;92946;-51
2022/11/02 09:01:02;;;;;;;0.83;0.60;;;;;;;;;;5039079;28;92066;-51
2022/11/02 09:03:30;;;;;;;0.53;0.53;;;;;;;;;;5039234;28;91776;-51
2022/11/02 09:05:59;;;;;;;0.70;0.37;;;;;;;;;;5038944;28;92996;-51
2022/11/02 09:08:27;;;;;;;1.63;0.40;;;;;;;;;;5030947;28;92819;-51
2022/11/02 09:10:58;;;;;;;1.63;0.70;;;;;;;;;;5018386;28;93467;-51
2022/11/02 09:13:26;;;;;;;1.37;0.80;;;;;;;;;;5018417;28;92077;-51
2022/11/02 09:15:57;;;;;;;0.40;0.40;;;;;;;;;;5019145;28;94152;-50
2022/11/02 09:18:25;;;;;;;1.77;0.80;;;;;;;;;;5018703;28;94079;-51
2022/11/02 09:20:53;;;;;;;1.37;0.47;;;;;;;;;;5018554;28;92079;-51
2022/11/02 09:23:22;;;;;;;2.07;0.30;;;;;;;;;;5019127;28;92184;-52
2022/11/02 09:25:50;;;;;;;1.13;0.70;;;;;;;;;;5018792;28;93177;-51
2022/11/02 09:28:18;;;;;;;1.63;0.70;;;;;;;;;;5018965;28;93732;-51
2022/11/02 09:30:47;;;;;;;0.43;0.30;;;;;;;;;;5019211;28;92040;-51
2022/11/02 09:33:17;;;;;;;1.83;0.33;;;;;;;;;;5018720;28;92114;-51
2022/11/02 09:35:46;;;;;;;2.23;0.40;;;;;;;;;;5018113;28;94396;-51
2022/11/02 09:38:15;;;;;;;1.60;0.73;;;;;;;;;;5032552;28;94877;-51
2022/11/02 09:40:44;;;;;;;0.50;0.50;;;;;;;;;;5038433;28;91991;-51
2022/11/02 09:43:15;;;;;;;2.10;0.90;;;;;;;;;;5037708;28;92757;-51
2022/11/02 09:45:45;;;;;;;2.23;0.57;;;;;;;;;;5038246;28;93108;-51
2022/11/02 09:48:15;;;;;;;0.37;0.37;;;;;;;;;;5037703;28;93954;-52
2022/11/02 09:50:52;;;;;;;0.60;0.60;;;;;;;;;;5038323;28;92133;-52
2022/11/02 09:53:28;;;;;;;0.70;0.20;;;;;;;;;;5034339;28;91288;-52
2022/11/02 09:55:57;;;;;;;0.40;0.40;;;;;;;;;;5034173;28;94299;-52
2022/11/02 09:58:29;;;;;;;2.77;0.50;;;;;;;;;;5038655;28;93849;-52
2022/11/02 10:00:58;;;;;;;2.73;0.43;;;;;;;;;;5038106;28;93070;-52
2022/11/02 10:03:32;;;;;;;2.70;0.80;;;;;;;;;;5018591;28;92403;-54
2022/11/02 10:06:03;;;;;;;10.13;1.10;;;;;;;;;;5017935;28;94169;-53
2022/11/02 10:08:34;;;;;;;4.33;0.60;;;;;;;;;;5019939;28;93778;-52
2022/11/02 10:11:06;;;;;;;2.47;0.60;;;;;;;;;;5038362;28;92218;-52
2022/11/02 10:13:37;;;;;;;1.17;0.70;;;;;;;;;;5038023;28;92009;-52
2022/11/02 10:16:06;;;;;;;0.20;0.20;;;;;;;;;;5037693;28;93181;-52
2022/11/02 10:18:35;;;;;;;0.63;0.40;;;;;;;;;;5038086;28;93641;-52
2022/11/02 10:21:06;;;;;;;3.10;0.70;;;;;;;;;;5022447;28;92087;-53
2022/11/02 10:23:35;;;;;;;0.27;0.27;;;;;;;;;;5017900;28;92131;-52
2022/11/02 10:26:03;;;;;;;1.40;0.70;;;;;;;;;;5017254;28;93122;-52
2022/11/02 10:28:32;;;;;;;2.53;0.70;;;;;;;;;;5017766;28;94883;-50
2022/11/02 10:31:01;;;;;;;0.30;0.30;;;;;;;;;;5018484;28;91985;-53
2022/11/02 10:33:29;;;;;;;2.00;0.50;;;;;;;;;;5020732;28;92099;-52
2022/11/02 10:36:10;;;;;;;1.23;0.67;;;;;;;;;;5025729;28;94165;-52
2022/11/02 10:38:49;;;;;;;3.70;1.53;;;;;;;;;;5034263;28;93732;-52
2022/11/02 10:41:21;;;;;;;5.83;2.97;;;;;;;;;;5041347;28;92034;-54
2022/11/02 10:43:55;;;;;;;6.03;3.53;;;;;;;;;;5041616;28;91354;-52
2022/11/02 10:46:26;;;;;;;4.30;1.40;;;;;;;;;;5040693;28;93157;-51
2022/11/02 10:48:56;;;;;;;10.13;1.97;;;;;;;;;;5040259;28;93919;-52
2022/11/02 10:51:26;;;;;;;13.53;2.87;;;;;;;;;;5040738;28;93027;-53
2022/11/02 10:53:54;;;;;;;3.53;2.23;;;;;;;;;;5041095;28;92068;-53
2022/11/02 10:56:23;;;;;;;7.93;2.77;;;;;;;;;;5040721;28;94125;-52
2022/11/02 10:58:53;;;;;;;2.70;1.70;;;;;;;;;;5041016;28;92049;-52
2022/11/02 11:01:21;;;;;;;9.10;2.07;;;;;;;;;;5041173;28;92013;-53
2022/11/02 11:04:09;;;;;;;3.73;1.97;;;;;;;;;;5041003;28;92080;-52
2022/11/02 11:06:39;;;;;;;2.33;1.37;;;;;;;;;;5040471;28;94153;-52
2022/11/02 11:09:08;;;;;;;5.00;1.40;;;;;;;;;;5040566;27;93802;-53
2022/11/02 11:11:37;;;;;;;3.03;1.60;;;;;;;;;;5038072;28;94042;-53
2022/11/02 11:14:06;;;;;;;1.43;1.20;;;;;;;;;;5040930;28;92173;-52
2022/11/02 11:16:54;;;;;;;1.37;0.80;;;;;;;;;;5039067;28;93797;-53
2022/11/02 11:19:24;;;;;;;4.73;1.23;;;;;;;;;;5039885;28;94678;-52
2022/11/02 11:22:23;;;;;;;2.43;1.27;;;;;;;;;;5029313;28;92169;-53
2022/11/02 11:24:53;;;;;;;3.33;1.67;;;;;;;;;;5018022;28;92109;-52
2022/11/02 11:27:21;;;;;;;4.47;1.30;;;;;;;;;;5020266;28;93429;-52
2022/11/02 11:29:50;;;;;;;2.97;0.80;;;;;;;;;;5019946;28;92140;-52
2022/11/02 11:32:20;;;;;;;3.40;0.90;;;;;;;;;;5019990;28;92047;-54
2022/11/02 11:34:55;;;;;;;1.10;0.67;;;;;;;;;;5037821;28;91477;-52
2022/11/02 11:37:23;;;;;;;7.33;1.43;;;;;;;;;;5040582;28;93344;-53
2022/11/02 11:39:54;;;;;;;2.20;1.10;;;;;;;;;;5037501;28;93985;-55
2022/11/02 11:42:22;;;;;;;1.23;0.90;;;;;;;;;;5040146;28;93011;-55
2022/11/02 11:44:53;;;;;;;4.10;1.20;;;;;;;;;;5036399;28;92165;-55
2022/11/02 11:47:24;;;;;;;3.13;0.63;;;;;;;;;;5025491;28;93028;-55
2022/11/02 11:49:53;;;;;;;1.10;1.10;;;;;;;;;;5036547;28;92799;-54
2022/11/02 11:52:41;;;;;;;2.10;0.90;;;;;;;;;;5020900;28;92452;-54
2022/11/02 11:55:21;;;;;;;3.77;1.00;;;;;;;;;;5026333;28;92091;-54
2022/11/02 11:58:05;;;;;;;0.60;0.50;;;;;;;;;;5022094;28;93211;-54
2022/11/02 12:00:34;;;;;;;1.73;0.93;;;;;;;;;;5040575;28;93812;-54
2022/11/02 12:03:04;;;;;;;1.00;0.87;;;;;;;;;;5040478;28;92190;-54
2022/11/02 12:05:35;;;;;;;1.27;0.60;;;;;;;;;;5024174;28;92077;-54
2022/11/02 12:08:08;;;;;;;2.33;0.90;;;;;;;;;;5018873;28;94286;-55
2022/11/02 12:10:43;;;;;;;0.70;0.63;;;;;;;;;;5019276;28;94969;-54
2022/11/02 12:13:15;;;;;;;1.87;0.70;;;;;;;;;;5012098;28;92808;-54
2022/11/02 12:15:54;;;;;;;2.00;0.57;;;;;;;;;;5020263;28;92097;-54
2022/11/02 12:18:27;;;;;;;4.07;0.70;;;;;;;;;;5019709;28;94178;-54
2022/11/02 12:20:57;;;;;;;0.70;0.57;;;;;;;;;;5038988;28;92617;-54
2022/11/02 12:23:29;;;;;;;2.03;0.93;;;;;;;;;;5040206;28;92209;-55
2022/11/02 12:26:01;;;;;;;0.90;0.50;;;;;;;;;;5030421;28;91364;-54
2022/11/02 12:28:35;;;;;;;0.83;0.77;;;;;;;;;;5019496;28;93984;-57
2022/11/02 12:31:05;;;;;;;0.60;0.53;;;;;;;;;;5025469;28;94521;-55
2022/11/02 12:33:36;;;;;;;2.73;0.73;;;;;;;;;;5039782;28;92872;-54
2022/11/02 12:36:06;;;;;;;2.53;0.63;;;;;;;;;;5039596;28;92414;-55
2022/11/02 12:38:38;;;;;;;1.30;0.70;;;;;;;;;;5019492;28;92195;-55
2022/11/02 12:41:09;;;;;;;1.73;0.83;;;;;;;;;;5019490;28;93274;-55
2022/11/02 12:43:39;;;;;;;0.87;0.87;;;;;;;;;;5019502;28;92074;-54
2022/11/02 12:46:21;;;;;;;1.03;0.60;;;;;;;;;;5032826;28;92118;-55
2022/11/02 12:48:51;;;;;;;1.30;1.00;;;;;;;;;;5038869;28;94247;-54
2022/11/02 12:51:19;;;;;;;0.90;0.73;;;;;;;;;;5039741;28;92926;-55
2022/11/02 12:53:49;;;;;;;0.87;0.50;;;;;;;;;;5027265;28;92105;-54
2022/11/02 12:56:20;;;;;;;0.60;0.50;;;;;;;;;;5018258;28;92126;-53
2022/11/02 12:58:48;;;;;;;1.37;0.73;;;;;;;;;;5018099;28;93930;-52
2022/11/02 13:01:19;;;;;;;0.80;0.80;;;;;;;;;;5018829;28;93901;-53
2022/11/02 13:03:49;;;;;;;1.63;1.10;;;;;;;;;;5019572;28;92144;-53
2022/11/02 13:06:18;;;;;;;1.57;0.70;;;;;;;;;;5019073;28;92148;-53
2022/11/02 13:08:47;;;;;;;0.87;0.40;;;;;;;;;;5018530;28;94087;-53
2022/11/02 13:11:16;;;;;;;2.20;0.60;;;;;;;;;;5032825;28;94274;-53
2022/11/02 13:13:46;;;;;;;2.80;0.40;;;;;;;;;;5020817;28;92148;-52
2022/11/02 13:16:15;;;;;;;1.00;0.73;;;;;;;;;;5024171;28;91420;-52
2022/11/02 13:18:44;;;;;;;2.10;0.50;;;;;;;;;;5038769;28;93194;-52
2022/11/02 13:21:13;;;;;;;0.70;0.50;;;;;;;;;;5030175;28;93452;-52
2022/11/02 13:23:43;;;;;;;2.03;0.73;;;;;;;;;;5037985;28;92991;-52
2022/11/02 13:26:13;;;;;;;0.53;0.53;;;;;;;;;;5038585;28;92039;-52
2022/11/02 13:28:42;;;;;;;0.40;0.40;;;;;;;;;;5038946;28;94129;-53
2022/11/02 13:31:12;;;;;;;0.53;0.53;;;;;;;;;;5037627;28;93754;-52
2022/11/02 13:33:42;;;;;;;2.80;1.00;;;;;;;;;;5026961;28;92124;-52
2022/11/02 13:36:10;;;;;;;1.33;0.40;;;;;;;;;;5030099;28;92133;-52
2022/11/02 13:38:39;;;;;;;1.53;1.17;;;;;;;;;;5034901;28;92183;-52
2022/11/02 13:41:12;;;;;;;1.33;0.87;;;;;;;;;;5018747;28;93664;-52
2022/11/02 13:43:49;;;;;;;4.53;1.10;;;;;;;;;;5018468;28;92110;-52
2022/11/02 13:46:32;;;;;;;3.03;1.10;;;;;;;;;;5018716;28;92074;-55
2022/11/02 13:49:01;;;;;;;0.50;0.50;;;;;;;;;;5029832;28;95203;-55
2022/11/02 13:51:31;;;;;;;0.63;0.40;;;;;;;;;;5038322;28;93790;-56
2022/11/02 13:54:01;;;;;;;1.93;0.63;;;;;;;;;;5038599;28;92482;-56
2022/11/02 13:56:29;;;;;;;4.73;0.67;;;;;;;;;;5035328;28;92287;-56
2022/11/02 13:58:59;;;;;;;4.70;0.97;;;;;;;;;;5036454;28;94325;-56
2022/11/02 14:01:28;;;;;;;3.43;1.37;;;;;;;;;;5027508;28;92802;-56
2022/11/02 14:03:58;;;;;;;1.00;0.93;;;;;;;;;;5018000;28;93152;-56
2022/11/02 14:06:29;;;;;;;1.63;0.97;;;;;;;;;;5018207;28;91601;-56
2022/11/02 14:08:58;;;;;;;0.77;0.40;;;;;;;;;;5017675;28;93143;-56
2022/11/02 14:11:28;;;;;;;2.00;0.60;;;;;;;;;;5017784;28;94039;-56
2022/11/02 14:14:17;;;;;;;0.77;0.77;;;;;;;;;;5018000;28;93127;-56
2022/11/02 14:16:46;;;;;;;3.00;1.40;;;;;;;;;;5018020;28;92093;-56
2022/11/02 14:19:25;;;;;;;0.47;0.47;;;;;;;;;;5017684;28;92011;-56
2022/11/02 14:22:04;;;;;;;1.03;0.77;;;;;;;;;;5018271;28;92369;-56
2022/11/02 14:24:52;;;;;;;2.20;0.67;;;;;;;;;;5018525;28;92045;-56
2022/11/02 14:27:30;;;;;;;0.67;0.40;;;;;;;;;;5018125;28;91955;-56
2022/11/02 14:29:58;;;;;;;3.07;1.13;;;;;;;;;;5017835;28;94281;-56
2022/11/02 14:32:43;;;;;;;3.30;0.80;;;;;;;;;;5018343;28;92647;-56
2022/11/02 14:35:17;;;;;;;2.17;0.60;;;;;;;;;;5017951;28;92160;-56
2022/11/02 14:38:00;;;;;;;5.13;1.03;;;;;;;;;;5017699;28;92209;-56
2022/11/02 14:40:29;;;;;;;0.93;0.70;;;;;;;;;;5014814;28;94215;-56
2022/11/02 14:43:06;;;;;;;5.97;0.87;;;;;;;;;;5017563;28;94840;-56
2022/11/02 14:45:47;;;;;;;2.50;1.00;;;;;;;;;;5017950;28;92010;-56
2022/11/02 14:48:16;;;;;;;2.30;0.70;;;;;;;;;;5017316;28;92309;-56
2022/11/02 14:50:45;;;;;;;2.93;1.13;;;;;;;;;;5017555;28;94199;-56
2022/11/02 14:53:19;;;;;;;0.53;0.30;;;;;;;;;;5016598;28;92880;-56
2022/11/02 14:55:52;;;;;;;2.27;0.97;;;;;;;;;;5018205;28;91981;-56
2022/11/02 14:58:20;;;;;;;1.37;0.87;;;;;;;;;;5018246;28;91338;-56
2022/11/02 15:00:56;;;;;;;0.97;0.57;;;;;;;;;;5017690;28;93914;-56
2022/11/02 15:03:30;;;;;;;1.43;1.07;;;;;;;;;;5016982;28;92738;-56
2022/11/02 15:06:00;;;;;;;1.67;0.57;;;;;;;;;;5017378;28;93028;-56
2022/11/02 15:08:31;;;;;;;2.13;0.80;;;;;;;;;;5017602;28;92101;-56
2022/11/02 15:10:59;;;;;;;2.10;0.73;;;;;;;;;;5017335;28;94368;-56
2022/11/02 15:13:35;;;;;;;1.50;0.93;;;;;;;;;;5016578;28;91961;-56
2022/11/02 15:16:16;;;;;;;2.47;0.60;;;;;;;;;;5017073;28;92242;-56
2022/11/02 15:18:44;;;;;;;2.87;0.57;;;;;;;;;;5017527;28;92083;-56